createdAt,value
2019-05-01T00:00:18.012Z,36.75
2019-05-01T00:03:04.354Z,36.80
2019-05-01T00:05:37.373Z,36.17
2019-05-01T00:08:07.230Z,35.90
2019-05-01T00:10:36.143Z,36.73
2019-05-01T00:13:06.764Z,36.90
2019-05-01T00:15:37.078Z,37.20
2019-05-01T00:18:05.717Z,38.20
2019-05-01T00:20:34.130Z,35.77
2019-05-01T00:23:02.569Z,36.57
2019-05-01T00:25:30.992Z,36.47
2019-05-01T00:27:59.407Z,38.30
2019-05-01T00:30:30.050Z,37.58
2019-05-01T00:32:58.845Z,37.50
2019-05-01T00:35:27.343Z,37.83
2019-05-01T00:37:55.750Z,36.47
2019-05-01T00:40:24.330Z,37.70
2019-05-01T00:42:52.792Z,36.53
2019-05-01T00:45:21.195Z,36.13
2019-05-01T00:47:49.594Z,36.17
2019-05-01T00:50:18.050Z,36.65
2019-05-01T00:52:46.458Z,36.93
2019-05-01T00:55:32.843Z,36.30
2019-05-01T00:58:15.166Z,38.43
2019-05-01T01:01:00.265Z,36.83
2019-05-01T01:03:28.709Z,36.50
2019-05-01T01:05:59.158Z,37.47
2019-05-01T01:08:27.586Z,37.30
2019-05-01T01:10:56.012Z,38.57
2019-05-01T01:13:24.427Z,36.20
2019-05-01T01:15:52.858Z,37.57
2019-05-01T01:18:21.274Z,37.65
2019-05-01T01:20:49.682Z,37.13
2019-05-01T01:23:18.352Z,37.73
2019-05-01T01:25:46.974Z,36.20
2019-05-01T01:28:15.554Z,38.70
2019-05-01T01:30:55.635Z,36.77
2019-05-01T01:33:14.280Z,38.98
2019-05-01T01:35:42.682Z,38.03
2019-05-01T01:38:11.238Z,37.60
2019-05-01T01:40:39.863Z,37.63
2019-05-01T01:43:26.386Z,38.67
2019-05-01T01:45:56.993Z,37.63
2019-05-01T01:48:25.728Z,37.17
2019-05-01T01:50:54.397Z,39.43
2019-05-01T01:53:23.377Z,39.90
2019-05-01T01:55:52.288Z,39.58
2019-05-01T01:58:21.640Z,38.78
2019-05-01T02:01:09.625Z,38.50
2019-05-01T02:03:40.219Z,39.48
2019-05-01T02:06:08.879Z,40.23
2019-05-01T02:08:37.625Z,40.43
2019-05-01T02:11:06.090Z,40.50
2019-05-01T02:13:34.585Z,39.87
2019-05-01T02:16:03.014Z,39.07
2019-05-01T02:18:31.405Z,40.27
2019-05-01T02:20:59.879Z,38.83
2019-05-01T02:23:28.331Z,39.60
2019-05-01T02:25:56.753Z,38.80
2019-05-01T02:28:27.277Z,40.10
2019-05-01T02:31:26.635Z,37.97
2019-05-01T02:33:41.483Z,40.13
2019-05-01T02:36:10.906Z,39.40
2019-05-01T02:38:41.158Z,41.47
2019-05-01T02:41:12.278Z,39.03
2019-05-01T02:43:43.582Z,40.10
2019-05-01T02:46:13.269Z,39.37
2019-05-01T02:48:44.767Z,40.13
2019-05-01T02:51:14.050Z,39.18
2019-05-01T02:53:45.307Z,38.77
2019-05-01T02:56:16.985Z,40.27
2019-05-01T02:58:47.329Z,40.03
2019-05-01T03:01:15.893Z,40.80
2019-05-01T03:03:44.461Z,39.80
2019-05-01T03:06:13.154Z,40.37
2019-05-01T03:08:42.297Z,40.30
2019-05-01T03:11:10.794Z,39.95
2019-05-01T03:13:41.784Z,39.57
2019-05-01T03:16:11.150Z,41.43
2019-05-01T03:18:41.288Z,39.60
2019-05-01T03:21:17.996Z,42.07
2019-05-01T03:24:04.873Z,41.43
2019-05-01T03:26:34.635Z,39.93
2019-05-01T03:29:04.770Z,41.80
2019-05-01T03:31:33.382Z,41.10
2019-05-01T03:34:02.147Z,40.87
2019-05-01T03:36:30.822Z,41.87
2019-05-01T03:38:59.455Z,42.17
2019-05-01T03:41:28.038Z,40.83
2019-05-01T03:43:56.592Z,41.83
2019-05-01T03:46:25.823Z,40.50
2019-05-01T03:48:54.462Z,41.20
2019-05-01T03:51:22.959Z,40.97
2019-05-01T03:53:51.506Z,41.33
2019-05-01T03:56:20.384Z,41.57
2019-05-01T03:58:48.882Z,42.13
2019-05-01T04:01:23.132Z,41.37
2019-05-01T04:03:53.212Z,41.88
2019-05-01T04:06:21.790Z,43.23
2019-05-01T04:08:50.333Z,43.07
2019-05-01T04:11:19.529Z,42.50
2019-05-01T04:13:48.126Z,44.43
2019-05-01T04:16:16.690Z,42.58
2019-05-01T04:18:45.161Z,41.97
2019-05-01T04:21:14.080Z,42.43
2019-05-01T04:23:43.052Z,43.03
2019-05-01T04:26:11.778Z,44.43
2019-05-01T04:28:44.347Z,43.50
2019-05-01T04:31:29.872Z,42.63
2019-05-01T04:34:18.334Z,43.17
2019-05-01T04:36:57.420Z,44.83
2019-05-01T04:39:25.989Z,44.60
2019-05-01T04:41:54.728Z,43.80
2019-05-01T04:44:23.424Z,46.10
2019-05-01T04:46:53.527Z,45.73
2019-05-01T04:49:22.477Z,47.37
2019-05-01T04:51:51.082Z,47.53
2019-05-01T04:54:19.616Z,47.48
2019-05-01T04:56:48.679Z,45.97
2019-05-01T04:59:17.150Z,47.80
2019-05-01T05:01:52.742Z,48.03
2019-05-01T05:04:23.358Z,52.87
2019-05-01T05:06:52.237Z,52.47
2019-05-01T05:09:22.921Z,52.83
2019-05-01T05:11:55.847Z,54.83
2019-05-01T05:14:32.321Z,55.50
2019-05-01T05:17:11.805Z,56.47
2019-05-01T05:19:40.399Z,59.57
2019-05-01T05:22:08.938Z,65.63
2019-05-01T05:24:37.548Z,65.30
2019-05-01T05:27:06.881Z,67.07
2019-05-01T05:29:36.458Z,68.17
2019-05-01T05:32:05.536Z,69.95
2019-05-01T05:34:35.685Z,65.37
2019-05-01T05:37:07.757Z,71.47
2019-05-01T05:39:43.994Z,70.13
2019-05-01T05:42:13.249Z,71.17
2019-05-01T05:44:42.014Z,72.40
2019-05-01T05:47:10.448Z,62.70
2019-05-01T05:49:38.889Z,66.73
2019-05-01T05:52:18.229Z,65.95
2019-05-01T05:55:08.287Z,63.77
2019-05-01T05:57:38.349Z,72.27
2019-05-01T06:00:19.202Z,67.70
2019-05-01T06:02:54.474Z,69.83
2019-05-01T06:05:36.482Z,69.57
2019-05-01T06:08:14.954Z,69.40
2019-05-01T06:10:53.559Z,68.80
2019-05-01T06:13:24.722Z,72.30
2019-05-01T06:16:04.638Z,72.93
2019-05-01T06:18:46.904Z,71.47
2019-05-01T06:21:26.423Z,73.30
2019-05-01T06:24:06.385Z,73.93
2019-05-01T06:26:37.234Z,74.13
2019-05-01T06:29:05.528Z,74.37
2019-05-01T06:31:35.279Z,74.77
2019-05-01T06:34:04.149Z,72.07
2019-05-01T06:36:33.246Z,75.23
2019-05-01T06:39:06.955Z,74.57
2019-05-01T06:41:42.411Z,74.70
2019-05-01T06:44:12.421Z,75.33
2019-05-01T06:46:51.531Z,74.83
2019-05-01T06:49:24.269Z,74.07
2019-05-01T06:51:55.218Z,72.03
2019-05-01T06:54:26.233Z,73.33
2019-05-01T06:56:55.986Z,75.07
2019-05-01T06:59:31.453Z,69.80
2019-05-01T07:02:00.124Z,74.42
2019-05-01T07:04:32.184Z,74.20
2019-05-01T07:07:06.647Z,73.23
2019-05-01T07:09:35.303Z,72.93
2019-05-01T07:12:07.051Z,73.87
2019-05-01T07:14:36.418Z,72.37
2019-05-01T07:17:09.049Z,75.77
2019-05-01T07:19:54.390Z,75.33
2019-05-01T07:22:23.400Z,76.73
2019-05-01T07:24:52.779Z,75.43
2019-05-01T07:27:23.873Z,72.87
2019-05-01T07:29:53.862Z,78.67
2019-05-01T07:32:23.097Z,77.43
2019-05-01T07:34:52.364Z,75.87
2019-05-01T07:37:25.851Z,76.20
2019-05-01T07:39:51.916Z,75.13
2019-05-01T07:42:28.649Z,72.80
2019-05-01T07:45:03.900Z,71.60
2019-05-01T07:47:42.036Z,71.80
2019-05-01T07:50:12.894Z,73.43
2019-05-01T07:52:42.568Z,76.43
2019-05-01T07:55:13.102Z,74.83
2019-05-01T07:57:44.580Z,75.97
2019-05-01T08:00:21.096Z,73.70
2019-05-01T08:02:50.112Z,71.63
2019-05-01T08:05:19.104Z,72.87
2019-05-01T08:07:48.609Z,73.13
2019-05-01T08:10:20.987Z,69.63
2019-05-01T08:12:47.998Z,71.22
2019-05-01T08:15:16.900Z,77.17
2019-05-01T08:17:48.759Z,73.27
2019-05-01T08:20:19.136Z,75.97
2019-05-01T08:22:48.798Z,75.23
2019-05-01T08:25:17.313Z,73.63
2019-05-01T08:27:51.161Z,71.30
2019-05-01T08:30:25.534Z,73.97
2019-05-01T08:33:01.384Z,74.10
2019-05-01T08:35:31.792Z,76.60
2019-05-01T08:38:00.353Z,77.40
2019-05-01T08:40:28.848Z,76.33
2019-05-01T08:42:57.252Z,74.77
2019-05-01T08:45:35.923Z,73.03
2019-05-01T08:48:16.730Z,76.57
2019-05-01T08:50:45.191Z,75.90
2019-05-01T08:53:13.594Z,77.90
2019-05-01T08:55:45.160Z,74.23
2019-05-01T08:58:14.150Z,70.72
2019-05-01T09:00:42.432Z,74.63
2019-05-01T09:03:13.713Z,77.50
2019-05-01T09:05:41.009Z,77.83
2019-05-01T09:08:09.430Z,73.77
2019-05-01T09:10:37.837Z,75.03
2019-05-01T09:13:06.297Z,77.90
2019-05-01T09:15:34.728Z,80.97
2019-05-01T09:18:03.166Z,76.83
2019-05-01T09:20:32.789Z,75.53
2019-05-01T09:23:01.200Z,77.93
2019-05-01T09:25:35.400Z,77.47
2019-05-01T09:28:22.517Z,75.20
2019-05-01T09:31:02.085Z,77.30
2019-05-01T09:33:30.823Z,78.80
2019-05-01T09:35:58.738Z,75.80
2019-05-01T09:38:27.209Z,78.27
2019-05-01T09:40:55.715Z,79.47
2019-05-01T09:43:24.225Z,77.27
2019-05-01T09:45:52.816Z,73.13
2019-05-01T09:48:21.229Z,72.58
2019-05-01T09:50:54.060Z,69.77
2019-05-01T09:53:24.105Z,69.83
2019-05-01T09:55:56.873Z,71.43
2019-05-01T09:58:25.341Z,68.40
2019-05-01T10:00:55.386Z,71.03
2019-05-01T10:03:23.793Z,69.27
2019-05-01T10:05:52.245Z,71.13
2019-05-01T10:08:20.653Z,71.17
2019-05-01T10:10:49.067Z,69.50
2019-05-01T10:13:21.830Z,70.80
2019-05-01T10:15:47.653Z,72.13
2019-05-01T10:18:16.112Z,68.97
2019-05-01T10:20:44.574Z,70.37
2019-05-01T10:23:14.985Z,68.77
2019-05-01T10:25:49.495Z,69.53
2019-05-01T10:28:34.590Z,68.93
2019-05-01T10:31:11.851Z,70.10
2019-05-01T10:33:51.503Z,66.97
2019-05-01T10:36:30.626Z,68.62
2019-05-01T10:38:59.118Z,69.63
2019-05-01T10:41:27.523Z,81.40
2019-05-01T10:43:55.926Z,76.67
2019-05-01T10:46:24.398Z,73.02
2019-05-01T10:48:52.801Z,77.30
2019-05-01T10:51:21.233Z,80.17
2019-05-01T10:53:49.950Z,79.70
2019-05-01T10:56:18.360Z,78.47
2019-05-01T10:58:46.801Z,80.07
2019-05-01T11:01:33.163Z,78.97
2019-05-01T11:04:01.567Z,74.53
2019-05-01T11:06:29.985Z,77.67
2019-05-01T11:08:58.467Z,75.47
2019-05-01T11:11:26.866Z,75.93
2019-05-01T11:13:55.306Z,73.50
2019-05-01T11:16:23.770Z,73.30
2019-05-01T11:18:52.186Z,74.73
2019-05-01T11:21:20.615Z,75.67
2019-05-01T11:23:49.089Z,73.50
2019-05-01T11:26:17.508Z,77.10
2019-05-01T11:28:45.933Z,79.07
2019-05-01T11:31:16.032Z,76.67
2019-05-01T11:33:58.432Z,76.33
2019-05-01T11:36:45.172Z,77.17
2019-05-01T11:39:24.419Z,75.60
2019-05-01T11:42:06.742Z,78.33
2019-05-01T11:44:35.148Z,76.73
2019-05-01T11:47:03.746Z,75.50
2019-05-01T11:49:32.201Z,77.33
2019-05-01T11:52:00.602Z,75.07
2019-05-01T11:54:29.018Z,74.70
2019-05-01T11:56:57.459Z,84.10
2019-05-01T11:59:25.866Z,78.30
2019-05-01T12:01:54.294Z,78.53
2019-05-01T12:04:22.744Z,77.07
2019-05-01T12:06:51.183Z,80.50
2019-05-01T12:09:19.635Z,80.20
2019-05-01T12:11:49.678Z,75.07
2019-05-01T12:14:18.145Z,75.90
2019-05-01T12:16:54.322Z,71.10
2019-05-01T12:19:24.830Z,73.10
2019-05-01T12:21:53.337Z,77.40
2019-05-01T12:24:21.777Z,78.70
2019-05-01T12:26:50.183Z,72.77
2019-05-01T12:29:18.641Z,73.37
2019-05-01T12:31:47.063Z,72.93
2019-05-01T12:34:15.545Z,74.82
2019-05-01T12:36:44.881Z,71.23
2019-05-01T12:39:19.415Z,70.23
2019-05-01T12:41:52.356Z,70.70
2019-05-01T12:44:20.775Z,70.70
2019-05-01T12:47:09.271Z,71.43
2019-05-01T12:49:37.688Z,69.53
2019-05-01T12:52:10.710Z,70.50
2019-05-01T12:54:55.830Z,66.37
2019-05-01T12:57:24.250Z,66.43
2019-05-01T12:59:52.673Z,68.60
2019-05-01T13:02:21.127Z,65.40
2019-05-01T13:04:49.569Z,64.83
2019-05-01T13:07:18.150Z,64.53
2019-05-01T13:09:46.685Z,66.37
2019-05-01T13:12:15.093Z,64.95
2019-05-01T13:14:43.517Z,63.03
2019-05-01T13:17:11.965Z,67.27
2019-05-01T13:19:40.397Z,65.67
2019-05-01T13:22:08.828Z,62.97
2019-05-01T13:24:38.897Z,64.67
2019-05-01T13:27:15.375Z,61.97
2019-05-01T13:29:51.074Z,64.07
2019-05-01T13:32:33.310Z,62.20
2019-05-01T13:35:01.769Z,62.73
2019-05-01T13:37:30.176Z,61.60
2019-05-01T13:39:58.603Z,61.73
2019-05-01T13:42:27.127Z,63.50
2019-05-01T13:44:55.529Z,60.97
2019-05-01T13:47:23.966Z,64.03
2019-05-01T13:49:52.384Z,60.67
2019-05-01T13:52:20.799Z,61.18
2019-05-01T13:54:49.224Z,65.20
2019-05-01T13:57:17.662Z,63.17
2019-05-01T13:59:46.063Z,61.33
2019-05-01T14:02:14.764Z,64.30
2019-05-01T14:04:43.214Z,60.07
2019-05-01T14:07:16.802Z,56.63
2019-05-01T14:09:41.762Z,59.07
2019-05-01T14:12:10.225Z,59.20
2019-05-01T14:14:38.652Z,57.23
2019-05-01T14:17:07.147Z,57.93
2019-05-01T14:19:37.245Z,60.03
2019-05-01T14:22:13.548Z,59.13
2019-05-01T14:24:46.757Z,58.43
2019-05-01T14:27:15.157Z,59.08
2019-05-01T14:29:43.562Z,59.73
2019-05-01T14:32:11.993Z,59.97
2019-05-01T14:34:40.401Z,59.40
2019-05-01T14:37:08.837Z,58.70
2019-05-01T14:39:37.424Z,56.80
2019-05-01T14:42:05.904Z,56.30
2019-05-01T14:44:36.815Z,53.43
2019-05-01T14:47:04.521Z,54.43
2019-05-01T14:49:32.937Z,53.60
2019-05-01T14:52:01.422Z,52.43
2019-05-01T14:54:29.926Z,49.70
2019-05-01T14:56:58.352Z,49.83
2019-05-01T14:59:26.850Z,52.17
2019-05-01T15:01:55.251Z,56.17
2019-05-01T15:04:23.701Z,53.00
2019-05-01T15:06:52.110Z,47.60
2019-05-01T15:09:20.545Z,50.90
2019-05-01T15:11:49.002Z,56.77
2019-05-01T15:14:30.951Z,54.18
2019-05-01T15:17:16.370Z,51.80
2019-05-01T15:19:46.412Z,52.83
2019-05-01T15:22:14.827Z,50.63
2019-05-01T15:24:43.265Z,52.80
2019-05-01T15:27:11.680Z,50.00
2019-05-01T15:29:40.108Z,50.20
2019-05-01T15:32:08.546Z,48.97
2019-05-01T15:34:36.953Z,47.43
2019-05-01T15:37:05.391Z,45.87
2019-05-01T15:39:35.474Z,46.87
2019-05-01T15:42:06.233Z,48.23
2019-05-01T15:44:39.002Z,48.47
2019-05-01T15:47:08.115Z,53.20
2019-05-01T15:49:36.738Z,51.17
2019-05-01T15:52:05.410Z,48.93
2019-05-01T15:54:33.963Z,46.63
2019-05-01T15:57:02.787Z,47.63
2019-05-01T15:59:31.529Z,48.00
2019-05-01T16:02:00.267Z,49.13
2019-05-01T16:04:31.296Z,48.00
2019-05-01T16:06:59.791Z,49.17
2019-05-01T16:09:28.232Z,48.37
2019-05-01T16:12:10.325Z,49.80
2019-05-01T16:14:39.040Z,49.77
2019-05-01T16:17:07.513Z,51.27
2019-05-01T16:19:35.937Z,51.47
2019-05-01T16:22:04.599Z,49.45
2019-05-01T16:24:33.046Z,49.03
2019-05-01T16:27:01.482Z,49.00
2019-05-01T16:29:29.882Z,50.17
2019-05-01T16:31:58.389Z,49.37
2019-05-01T16:34:26.852Z,49.77
2019-05-01T16:36:55.322Z,49.97
2019-05-01T16:39:28.176Z,51.70
2019-05-01T16:41:56.586Z,51.10
2019-05-01T16:44:25.013Z,50.80
2019-05-01T16:46:53.462Z,51.17
2019-05-01T16:49:21.874Z,51.60
2019-05-01T16:51:50.478Z,49.97
2019-05-01T16:54:18.914Z,50.15
2019-05-01T16:56:47.530Z,48.87
2019-05-01T16:59:15.963Z,49.87
2019-05-01T17:01:45.990Z,50.40
2019-05-01T17:04:16.108Z,50.00
2019-05-01T17:06:55.221Z,52.20
2019-05-01T17:09:28.996Z,53.23
2019-05-01T17:11:58.018Z,51.17
2019-05-01T17:14:26.721Z,51.87
2019-05-01T17:16:55.627Z,51.80
2019-05-01T17:19:24.101Z,53.03
2019-05-01T17:21:52.516Z,54.40
2019-05-01T17:24:20.966Z,52.27
2019-05-01T17:26:49.393Z,53.57
2019-05-01T17:29:17.796Z,52.07
2019-05-01T17:31:46.251Z,50.37
2019-05-01T17:34:14.652Z,51.65
2019-05-01T17:36:43.101Z,51.60
2019-05-01T17:39:12.542Z,47.80
2019-05-01T17:41:40.948Z,50.93
2019-05-01T17:44:09.390Z,50.80
2019-05-01T17:46:41.799Z,49.80
2019-05-01T17:49:09.172Z,48.50
2019-05-01T17:51:42.614Z,48.97
2019-05-01T17:54:08.262Z,48.93
2019-05-01T17:56:36.681Z,49.60
2019-05-01T17:59:05.322Z,47.30
2019-05-01T18:01:50.129Z,45.73
2019-05-01T18:04:20.221Z,47.15
2019-05-01T18:06:49.989Z,45.00
2019-05-01T18:09:18.875Z,48.53
2019-05-01T18:11:52.044Z,46.47
2019-05-01T18:14:17.513Z,45.40
2019-05-01T18:16:45.975Z,45.10
2019-05-01T18:19:14.464Z,43.63
2019-05-01T18:21:46.884Z,44.33
2019-05-01T18:24:18.975Z,42.98
2019-05-01T18:26:50.303Z,44.50
2019-05-01T18:29:20.383Z,43.60
2019-05-01T18:31:48.917Z,44.03
2019-05-01T18:34:17.422Z,44.07
2019-05-01T18:36:47.444Z,44.30
2019-05-01T18:39:27.118Z,43.43
2019-05-01T18:42:00.894Z,44.53
2019-05-01T18:44:30.581Z,44.20
2019-05-01T18:46:59.130Z,43.13
2019-05-01T18:49:27.605Z,44.73
2019-05-01T18:51:56.041Z,43.63
2019-05-01T18:54:24.509Z,44.30
2019-05-01T18:56:54.746Z,41.97
2019-05-01T18:59:23.425Z,44.60
2019-05-01T19:01:51.957Z,41.28
2019-05-01T19:04:23.464Z,44.10
2019-05-01T19:06:50.688Z,42.47
2019-05-01T19:09:29.762Z,42.73
2019-05-01T19:11:49.738Z,41.20
2019-05-01T19:14:18.392Z,41.27
2019-05-01T19:16:47.274Z,39.80
2019-05-01T19:19:15.991Z,39.73
2019-05-01T19:21:46.511Z,41.23
2019-05-01T19:24:15.835Z,39.80
2019-05-01T19:26:44.916Z,39.80
2019-05-01T19:29:13.485Z,42.03
2019-05-01T19:31:42.766Z,42.30
2019-05-01T19:34:11.509Z,41.90
2019-05-01T19:36:40.498Z,40.93
2019-05-01T19:39:11.737Z,46.00
2019-05-01T19:41:43.571Z,44.20
2019-05-01T19:44:13.861Z,41.93
2019-05-01T19:46:40.900Z,42.05
2019-05-01T19:49:09.590Z,41.77
2019-05-01T19:51:38.260Z,45.17
2019-05-01T19:54:06.823Z,44.40
2019-05-01T19:56:35.267Z,40.50
2019-05-01T19:59:05.096Z,43.40
2019-05-01T20:01:33.681Z,42.00
2019-05-01T20:04:02.214Z,43.30
2019-05-01T20:06:30.642Z,41.03
2019-05-01T20:08:59.072Z,41.43
2019-05-01T20:11:27.583Z,43.53
2019-05-01T20:13:55.992Z,42.93
2019-05-01T20:16:24.467Z,41.45
2019-05-01T20:18:53.993Z,42.38
2019-05-01T20:21:22.702Z,41.77
2019-05-01T20:23:51.161Z,45.10
2019-05-01T20:26:19.601Z,45.63
2019-05-01T20:28:48.563Z,45.57
2019-05-01T20:31:17.899Z,44.30
2019-05-01T20:33:47.182Z,43.33
2019-05-01T20:36:15.610Z,44.63
2019-05-01T20:38:44.077Z,46.30
2019-05-01T20:41:16.115Z,46.23
2019-05-01T20:43:45.074Z,45.60
2019-05-01T20:46:13.095Z,48.13
2019-05-01T20:48:41.580Z,45.80
2019-05-01T20:51:09.985Z,44.23
2019-05-01T20:53:38.669Z,49.57
2019-05-01T20:56:09.389Z,48.63
2019-05-01T20:58:37.797Z,50.30
2019-05-01T21:01:06.266Z,52.50
2019-05-01T21:03:36.576Z,52.43
2019-05-01T21:06:09.569Z,51.23
2019-05-01T21:08:42.596Z,51.57
2019-05-01T21:11:13.018Z,52.97
2019-05-01T21:13:41.754Z,52.77
2019-05-01T21:16:10.213Z,53.73
2019-05-01T21:18:38.617Z,52.77
2019-05-01T21:21:07.029Z,51.80
2019-05-01T21:23:35.628Z,51.80
2019-05-01T21:26:04.042Z,52.37
2019-05-01T21:28:34.077Z,53.43
2019-05-01T21:31:03.953Z,53.03
2019-05-01T21:33:33.948Z,52.63
2019-05-01T21:36:04.763Z,53.07
2019-05-01T21:38:32.892Z,52.73
2019-05-01T21:41:02.802Z,50.30
2019-05-01T21:43:33.207Z,51.87
2019-05-01T21:46:01.441Z,51.67
2019-05-01T21:48:29.874Z,53.30
2019-05-01T21:51:03.308Z,53.47
2019-05-01T21:53:28.465Z,54.43
2019-05-01T21:55:56.917Z,54.53
2019-05-01T21:58:28.183Z,56.33
2019-05-01T22:00:59.556Z,54.27
2019-05-01T22:03:26.506Z,52.37
2019-05-01T22:05:54.921Z,53.00
2019-05-01T22:08:23.557Z,51.97
2019-05-01T22:10:52.471Z,50.90
2019-05-01T22:13:24.271Z,53.90
2019-05-01T22:16:08.010Z,52.63
2019-05-01T22:18:38.105Z,52.83
2019-05-01T22:21:17.357Z,54.23
2019-05-01T22:23:52.982Z,55.67
2019-05-01T22:26:21.449Z,55.37
2019-05-01T22:28:54.846Z,52.77
2019-05-01T22:31:35.757Z,56.07
2019-05-01T22:34:06.050Z,55.33
2019-05-01T22:36:34.626Z,54.40
2019-05-01T22:39:06.067Z,53.27
2019-05-01T22:41:33.217Z,56.00
2019-05-01T22:44:03.214Z,53.27
2019-05-01T22:46:33.743Z,54.57
2019-05-01T22:49:01.805Z,54.37
2019-05-01T22:51:30.230Z,56.03
2019-05-01T22:53:58.666Z,56.27
2019-05-01T22:56:27.094Z,54.30
2019-05-01T22:58:55.527Z,55.13
2019-05-01T23:01:24.728Z,57.10
2019-05-01T23:03:57.453Z,56.20
2019-05-01T23:06:25.908Z,54.53
2019-05-01T23:08:54.332Z,55.30
2019-05-01T23:11:24.273Z,54.53
2019-05-01T23:13:52.738Z,55.17
2019-05-01T23:16:23.009Z,55.47
2019-05-01T23:18:51.831Z,54.97
2019-05-01T23:21:21.725Z,54.40
2019-05-01T23:23:50.197Z,52.43
2019-05-01T23:26:18.685Z,53.15
2019-05-01T23:28:47.133Z,55.23
2019-05-01T23:31:15.706Z,53.37
2019-05-01T23:33:45.704Z,54.97
2019-05-01T23:36:23.414Z,52.03
2019-05-01T23:38:44.500Z,51.70
2019-05-01T23:41:12.923Z,53.87
2019-05-01T23:43:41.349Z,55.00
2019-05-01T23:46:09.757Z,52.67
